createdAt,value
2023-04-09T00:01:22.972Z,102170.75
2023-04-09T00:03:51.375Z,102167.25
2023-04-09T00:06:21.043Z,102167.03
2023-04-09T00:08:49.400Z,102163.22
2023-04-09T00:11:17.672Z,102167.00
2023-04-09T00:13:45.952Z,102169.25
2023-04-09T00:16:14.250Z,102171.19
2023-04-09T00:18:42.516Z,102166.81
2023-04-09T00:21:10.691Z,102165.28
2023-04-09T00:23:40.599Z,102164.31
2023-04-09T00:26:08.787Z,102163.91
2023-04-09T00:28:37.512Z,102164.25
2023-04-09T00:31:05.754Z,102162.78
2023-04-09T00:33:33.938Z,102161.56
2023-04-09T00:36:02.154Z,102158.38
2023-04-09T00:38:30.533Z,102156.78
2023-04-09T00:41:00.094Z,102158.97
2023-04-09T00:43:28.319Z,102163.41
2023-04-09T00:45:56.652Z,102168.72
2023-04-09T00:48:24.944Z,102161.94
2023-04-09T00:50:53.259Z,102169.66
2023-04-09T00:53:21.749Z,102165.41
2023-04-09T00:55:50.329Z,102156.50
2023-04-09T00:58:20.197Z,102167.13
2023-04-09T01:00:48.524Z,102167.56
2023-04-09T01:03:17.182Z,102163.31
2023-04-09T01:05:54.476Z,102161.81
2023-04-09T01:08:39.906Z,102170.34
2023-04-09T01:11:22.350Z,102161.19
2023-04-09T01:14:03.018Z,102169.91
2023-04-09T01:16:33.795Z,102158.84
2023-04-09T01:19:10.895Z,102160.94
2023-04-09T01:21:42.113Z,102165.22
2023-04-09T01:24:22.736Z,102160.75
2023-04-09T01:27:03.075Z,102164.56
2023-04-09T01:29:36.698Z,102162.03
2023-04-09T01:32:06.891Z,102167.34
2023-04-09T01:34:35.919Z,102158.63
2023-04-09T01:37:05.585Z,102152.66
2023-04-09T01:39:34.072Z,102159.25
2023-04-09T01:42:03.853Z,102159.88
2023-04-09T01:44:34.420Z,102154.56
2023-04-09T01:47:03.700Z,102155.84
2023-04-09T01:49:32.207Z,102154.34
2023-04-09T01:52:00.942Z,102153.91
2023-04-09T01:54:29.122Z,102155.66
2023-04-09T01:56:59.259Z,102151.56
2023-04-09T01:59:27.547Z,102148.59
2023-04-09T02:02:04.511Z,102145.84
2023-04-09T02:04:38.274Z,102148.56
2023-04-09T02:07:29.291Z,102142.41
2023-04-09T02:10:00.634Z,102144.56
2023-04-09T02:12:31.284Z,102144.56
2023-04-09T02:15:02.087Z,102140.28
2023-04-09T02:17:31.740Z,102141.78
2023-04-09T02:19:59.998Z,102136.03
2023-04-09T02:22:28.160Z,102135.59
2023-04-09T02:24:56.363Z,102142.19
2023-04-09T02:27:24.560Z,102141.13
2023-04-09T02:29:52.757Z,102133.06
2023-04-09T02:32:20.948Z,102136.84
2023-04-09T02:34:50.506Z,102133.66
2023-04-09T02:37:19.365Z,102130.69
2023-04-09T02:39:47.520Z,102127.94
2023-04-09T02:42:15.721Z,102130.28
2023-04-09T02:44:44.313Z,102126.84
2023-04-09T02:47:12.554Z,102123.44
2023-04-09T02:49:40.761Z,102124.09
2023-04-09T02:52:11.930Z,102124.72
2023-04-09T02:54:40.105Z,102123.22
2023-04-09T02:57:08.294Z,102115.34
2023-04-09T02:59:39.042Z,102109.81
2023-04-09T03:02:07.384Z,102111.09
2023-04-09T03:04:35.662Z,102109.59
2023-04-09T03:07:03.982Z,102111.72
2023-04-09T03:09:33.515Z,102110.88
2023-04-09T03:12:02.151Z,102112.56
2023-04-09T03:14:30.401Z,102108.53
2023-04-09T03:16:58.636Z,102107.25
2023-04-09T03:19:27.142Z,102107.25
2023-04-09T03:21:55.323Z,102109.16
2023-04-09T03:24:23.494Z,102100.22
2023-04-09T03:26:53.060Z,102105.75
2023-04-09T03:29:21.337Z,102106.59
2023-04-09T03:31:49.508Z,102097.03
2023-04-09T03:34:17.843Z,102099.56
2023-04-09T03:36:46.084Z,102102.13
2023-04-09T03:39:14.238Z,102104.03
2023-04-09T03:41:42.409Z,102095.94
2023-04-09T03:44:11.905Z,102096.16
2023-04-09T03:46:40.194Z,102102.97
2023-04-09T03:49:08.700Z,102094.00
2023-04-09T03:51:36.902Z,102094.22
2023-04-09T03:54:05.223Z,102098.25
2023-04-09T03:56:33.388Z,102092.94
2023-04-09T03:59:01.547Z,102104.00
2023-04-09T04:01:31.119Z,102103.78
2023-04-09T04:03:59.397Z,102095.47
2023-04-09T04:06:28.265Z,102097.38
2023-04-09T04:08:56.747Z,102104.59
2023-04-09T04:11:24.944Z,102106.31
2023-04-09T04:13:53.202Z,102103.34
2023-04-09T04:16:21.409Z,102103.56
2023-04-09T04:18:51.364Z,102103.75
2023-04-09T04:21:19.763Z,102097.38
2023-04-09T04:23:47.977Z,102098.59
2023-04-09T04:26:16.200Z,102106.47
2023-04-09T04:28:44.451Z,102103.69
2023-04-09T04:31:13.731Z,102106.88
2023-04-09T04:33:43.489Z,102106.03
2023-04-09T04:36:14.848Z,102109.66
2023-04-09T04:38:43.638Z,102104.75
2023-04-09T04:41:12.862Z,102109.44
2023-04-09T04:43:42.199Z,102111.78
2023-04-09T04:46:10.411Z,102107.50
2023-04-09T04:48:38.626Z,102106.84
2023-04-09T04:51:07.017Z,102106.03
2023-04-09T04:53:36.621Z,102101.75
2023-04-09T04:56:05.352Z,102106.44
2023-04-09T04:58:33.620Z,102109.41
2023-04-09T05:01:01.872Z,102106.66
2023-04-09T05:03:30.211Z,102107.25
2023-04-09T05:05:58.490Z,102115.75
2023-04-09T05:08:26.780Z,102115.75
2023-04-09T05:10:56.712Z,102105.56
2023-04-09T05:13:25.138Z,102105.94
2023-04-09T05:15:53.336Z,102106.81
2023-04-09T05:18:21.692Z,102108.97
2023-04-09T05:20:49.861Z,102110.25
2023-04-09T05:23:18.067Z,102113.66
2023-04-09T05:25:46.266Z,102114.75
2023-04-09T05:28:16.840Z,102114.84
2023-04-09T05:30:48.307Z,102120.44
2023-04-09T05:33:16.591Z,102121.06
2023-04-09T05:35:44.816Z,102119.19
2023-04-09T05:38:13.786Z,102113.69
2023-04-09T05:40:42.333Z,102111.09
2023-04-09T05:43:10.795Z,102117.03
2023-04-09T05:45:40.629Z,102113.78
2023-04-09T05:48:08.965Z,102115.94
2023-04-09T05:50:47.544Z,102108.75
2023-04-09T05:53:23.020Z,102103.44
2023-04-09T05:55:51.288Z,102111.22
2023-04-09T05:58:19.927Z,102114.06
2023-04-09T06:00:51.612Z,102119.00
2023-04-09T06:03:20.626Z,102117.47
2023-04-09T06:05:49.287Z,102115.47
2023-04-09T06:08:17.608Z,102111.63
2023-04-09T06:10:45.849Z,102113.66
2023-04-09T06:13:14.280Z,102116.94
2023-04-09T06:15:42.765Z,102111.94
2023-04-09T06:18:12.390Z,102107.88
2023-04-09T06:20:41.564Z,102108.53
2023-04-09T06:23:09.803Z,102116.16
2023-04-09T06:25:38.067Z,102120.69
2023-04-09T06:28:06.700Z,102121.38
2023-04-09T06:30:37.110Z,102119.25
2023-04-09T06:33:05.473Z,102118.66
2023-04-09T06:35:35.178Z,102118.72
2023-04-09T06:38:03.377Z,102120.41
2023-04-09T06:40:31.919Z,102127.78
2023-04-09T06:43:00.783Z,102116.31
2023-04-09T06:45:29.268Z,102130.13
2023-04-09T06:47:57.814Z,102129.06
2023-04-09T06:50:26.409Z,102122.88
2023-04-09T06:52:56.322Z,102124.72
2023-04-09T06:55:24.795Z,102132.94
2023-04-09T06:57:52.986Z,102137.78
2023-04-09T07:00:23.006Z,102138.34
2023-04-09T07:02:52.504Z,102146.44
2023-04-09T07:05:21.173Z,102138.34
2023-04-09T07:07:49.385Z,102140.78
2023-04-09T07:10:19.233Z,102136.28
2023-04-09T07:12:47.458Z,102140.38
2023-04-09T07:15:15.684Z,102139.00
2023-04-09T07:17:44.570Z,102150.53
2023-04-09T07:20:13.645Z,102148.03
2023-04-09T07:22:41.900Z,102143.13
2023-04-09T07:25:10.818Z,102136.75
2023-04-09T07:27:40.398Z,102138.72
2023-04-09T07:30:10.719Z,102145.16
2023-04-09T07:32:39.056Z,102143.78
2023-04-09T07:35:11.315Z,102144.94
2023-04-09T07:37:39.646Z,102140.16
2023-04-09T07:40:09.746Z,102143.53
2023-04-09T07:42:40.655Z,102148.03
2023-04-09T07:45:10.182Z,102153.50
2023-04-09T07:47:40.869Z,102148.25
2023-04-09T07:50:11.390Z,102146.38
2023-04-09T07:52:39.679Z,102144.06
2023-04-09T07:55:08.539Z,102136.47
2023-04-09T07:57:36.885Z,102147.38
2023-04-09T08:00:08.459Z,102141.22
2023-04-09T08:02:36.800Z,102149.53
2023-04-09T08:05:05.569Z,102139.19
2023-04-09T08:07:33.768Z,102138.97
2023-04-09T08:10:02.055Z,102138.50
2023-04-09T08:12:30.329Z,102141.31
2023-04-09T08:14:58.524Z,102140.69
2023-04-09T08:17:28.483Z,102141.09
2023-04-09T08:19:56.788Z,102142.94
2023-04-09T08:22:24.998Z,102134.50
2023-04-09T08:24:53.892Z,102130.06
2023-04-09T08:27:22.166Z,102128.19
2023-04-09T08:29:50.434Z,102129.63
2023-04-09T08:32:18.807Z,102132.09
2023-04-09T08:34:48.446Z,102135.88
2023-04-09T08:37:16.735Z,102145.97
2023-04-09T08:39:44.960Z,102136.91
2023-04-09T08:42:16.205Z,102140.41
2023-04-09T08:44:45.334Z,102137.91
2023-04-09T08:47:14.203Z,102136.06
2023-04-09T08:49:42.436Z,102143.63
2023-04-09T08:52:12.112Z,102150.31
2023-04-09T08:54:40.401Z,102150.56
2023-04-09T08:57:08.798Z,102144.13
2023-04-09T08:59:37.928Z,102147.84
2023-04-09T09:02:09.919Z,102143.41
2023-04-09T09:04:49.051Z,102142.19
2023-04-09T09:07:19.206Z,102148.81
2023-04-09T09:09:55.664Z,102138.84
2023-04-09T09:12:38.465Z,102138.22
2023-04-09T09:15:26.289Z,102136.19
2023-04-09T09:17:56.982Z,102145.19
2023-04-09T09:20:27.575Z,102139.88
2023-04-09T09:22:57.842Z,102125.41
2023-04-09T09:25:26.798Z,102127.78
2023-04-09T09:27:55.852Z,102132.59
2023-04-09T09:30:26.188Z,102120.00
2023-04-09T09:32:55.703Z,102119.47
2023-04-09T09:35:23.988Z,102124.56
2023-04-09T09:38:05.306Z,102117.81
2023-04-09T09:40:33.685Z,102111.94
2023-04-09T09:43:01.953Z,102110.75
2023-04-09T09:45:31.421Z,102119.91
2023-04-09T09:47:59.987Z,102109.22
2023-04-09T09:50:32.429Z,102118.56
2023-04-09T09:53:07.755Z,102114.31
2023-04-09T09:55:40.451Z,102107.78
2023-04-09T09:58:18.022Z,102104.19
2023-04-09T10:00:48.947Z,102109.91
2023-04-09T10:03:23.439Z,102107.66
2023-04-09T10:05:53.492Z,102104.81
2023-04-09T10:08:23.763Z,102102.88
2023-04-09T10:10:53.784Z,102088.34
2023-04-09T10:13:32.348Z,102088.03
2023-04-09T10:16:01.750Z,102086.88
2023-04-09T10:18:33.469Z,102090.47
2023-04-09T10:21:11.371Z,102083.28
2023-04-09T10:23:44.320Z,102084.56
2023-04-09T10:26:12.605Z,102087.84
2023-04-09T10:28:41.271Z,102086.03
2023-04-09T10:31:09.712Z,102083.72
2023-04-09T10:33:39.679Z,102091.16
2023-04-09T10:36:13.457Z,102084.16
2023-04-09T10:38:48.744Z,102087.56
2023-04-09T10:41:23.152Z,102080.47
2023-04-09T10:43:52.002Z,102074.69
2023-04-09T10:46:31.477Z,102071.81
2023-04-09T10:49:13.765Z,102064.06
2023-04-09T10:51:45.126Z,102072.34
2023-04-09T10:54:39.949Z,102064.81
2023-04-09T10:57:17.986Z,102062.75
2023-04-09T10:59:48.914Z,102059.66
2023-04-09T11:03:06.276Z,102067.94
2023-04-09T11:05:36.520Z,102059.22
2023-04-09T11:08:10.845Z,102059.50
2023-04-09T11:10:44.576Z,102061.56
2023-04-09T11:13:13.660Z,102053.50
2023-04-09T11:15:42.399Z,102052.72
2023-04-09T11:18:12.126Z,102051.06
2023-04-09T11:20:40.946Z,102048.31
2023-04-09T11:23:09.384Z,102049.28
2023-04-09T11:25:37.583Z,102031.72
2023-04-09T11:28:08.590Z,102036.09
2023-04-09T11:30:37.528Z,102040.25
2023-04-09T11:33:05.875Z,102033.03
2023-04-09T11:35:37.302Z,102036.13
2023-04-09T11:38:09.018Z,102024.31
2023-04-09T11:40:43.486Z,102025.91
2023-04-09T11:43:13.069Z,102030.66
2023-04-09T11:45:41.636Z,102033.72
2023-04-09T11:48:10.096Z,102028.38
2023-04-09T11:50:38.712Z,102025.31
2023-04-09T11:53:18.889Z,102019.75
2023-04-09T11:55:51.139Z,102013.78
2023-04-09T11:58:24.629Z,102023.09
2023-04-09T12:00:56.111Z,102005.31
2023-04-09T12:03:32.568Z,102015.81
2023-04-09T12:06:03.789Z,102006.63
2023-04-09T12:08:34.659Z,102010.75
2023-04-09T12:11:11.285Z,102014.84
2023-04-09T12:13:43.459Z,102014.09
2023-04-09T12:16:12.453Z,102017.28
2023-04-09T12:18:41.480Z,102019.47
2023-04-09T12:21:09.722Z,102009.88
2023-04-09T12:23:38.116Z,102009.78
2023-04-09T12:26:06.530Z,102008.44
2023-04-09T12:28:34.767Z,102011.22
2023-04-09T12:31:04.407Z,102001.03
2023-04-09T12:33:34.022Z,102010.88
2023-04-09T12:36:02.486Z,102011.00
2023-04-09T12:38:31.178Z,102010.91
2023-04-09T12:40:59.965Z,102011.78
2023-04-09T12:43:28.317Z,102006.72
2023-04-09T12:45:56.572Z,102005.28
2023-04-09T12:48:26.510Z,102020.56
2023-04-09T12:50:54.752Z,102005.91
2023-04-09T12:53:22.984Z,102009.75
2023-04-09T12:55:51.216Z,102006.38
2023-04-09T12:58:19.412Z,102008.00
2023-04-09T13:00:47.707Z,102010.38
2023-04-09T13:03:17.053Z,102011.06
2023-04-09T13:05:47.296Z,101997.72
2023-04-09T13:08:16.234Z,102005.25
2023-04-09T13:10:44.609Z,101994.16
2023-04-09T13:13:13.040Z,102002.19
2023-04-09T13:15:43.500Z,101988.81
2023-04-09T13:18:11.842Z,101992.69
2023-04-09T13:20:40.427Z,101987.81
2023-04-09T13:23:10.002Z,101990.94
2023-04-09T13:25:38.281Z,101995.03
2023-04-09T13:28:06.549Z,101994.94
2023-04-09T13:30:34.860Z,101991.34
2023-04-09T13:33:03.151Z,101990.78
2023-04-09T13:35:32.208Z,101977.34
2023-04-09T13:38:00.927Z,101976.53
2023-04-09T13:40:30.569Z,101978.03
2023-04-09T13:42:58.767Z,101974.25
2023-04-09T13:45:26.983Z,101983.03
2023-04-09T13:47:55.217Z,101983.41
2023-04-09T13:50:23.496Z,101982.53
2023-04-09T13:52:51.719Z,101983.38
2023-04-09T13:55:20.161Z,101982.41
2023-04-09T13:57:49.737Z,101978.78
2023-04-09T14:00:19.848Z,101972.69
2023-04-09T14:02:48.174Z,101970.91
2023-04-09T14:05:16.590Z,101960.13
2023-04-09T14:07:44.832Z,101963.03
2023-04-09T14:10:13.207Z,101964.47
2023-04-09T14:12:41.428Z,101964.13
2023-04-09T14:15:11.957Z,101955.91
2023-04-09T14:17:40.830Z,101946.16
2023-04-09T14:20:10.368Z,101943.28
2023-04-09T14:22:38.909Z,101945.25
2023-04-09T14:25:08.624Z,101939.22
2023-04-09T14:27:37.192Z,101937.38
2023-04-09T14:30:07.822Z,101942.28
2023-04-09T14:32:37.477Z,101934.47
2023-04-09T14:35:06.609Z,101932.03
2023-04-09T14:37:34.814Z,101941.44
2023-04-09T14:40:03.060Z,101935.28
2023-04-09T14:42:31.867Z,101930.44
2023-04-09T14:45:00.284Z,101931.72
2023-04-09T14:47:28.656Z,101939.41
2023-04-09T14:49:58.269Z,101944.63
2023-04-09T14:52:27.581Z,101933.16
2023-04-09T14:54:56.081Z,101926.53
2023-04-09T14:57:24.501Z,101922.91
2023-04-09T14:59:52.695Z,101926.75
2023-04-09T15:02:21.072Z,101920.06
2023-04-09T15:04:49.436Z,101919.22
2023-04-09T15:07:19.031Z,101920.03
2023-04-09T15:09:47.224Z,101931.16
2023-04-09T15:12:15.626Z,101915.66
2023-04-09T15:14:43.815Z,101919.78
2023-04-09T15:17:12.071Z,101923.16
2023-04-09T15:19:40.316Z,101910.72
2023-04-09T15:22:08.528Z,101912.63
2023-04-09T15:24:38.082Z,101909.50
2023-04-09T15:27:06.455Z,101922.09
2023-04-09T15:29:34.927Z,101912.16
2023-04-09T15:32:03.688Z,101913.03
2023-04-09T15:34:31.983Z,101914.84
2023-04-09T15:37:00.268Z,101910.34
2023-04-09T15:39:29.202Z,101921.72
2023-04-09T15:41:58.972Z,101905.66
2023-04-09T15:44:27.431Z,101911.06
2023-04-09T15:46:55.898Z,101916.47
2023-04-09T15:49:24.706Z,101912.41
2023-04-09T15:51:52.945Z,101904.25
2023-04-09T15:54:21.200Z,101908.53
2023-04-09T15:56:49.913Z,101908.25
2023-04-09T15:59:19.467Z,101913.09
2023-04-09T16:01:48.165Z,101908.63
2023-04-09T16:04:16.450Z,101912.38
2023-04-09T16:06:44.724Z,101909.44
2023-04-09T16:09:12.989Z,101903.06
2023-04-09T16:11:41.222Z,101905.28
2023-04-09T16:14:10.207Z,101908.53
2023-04-09T16:16:39.810Z,101904.03
2023-04-09T16:19:08.032Z,101902.63
2023-04-09T16:21:36.849Z,101895.59
2023-04-09T16:24:05.214Z,101889.28
2023-04-09T16:26:33.444Z,101875.06
2023-04-09T16:29:04.098Z,101878.53
2023-04-09T16:31:32.413Z,101884.44
2023-04-09T16:34:02.506Z,101877.06
2023-04-09T16:36:33.574Z,101869.75
2023-04-09T16:39:01.781Z,101877.25
2023-04-09T16:41:30.099Z,101861.63
2023-04-09T16:43:58.315Z,101870.75
2023-04-09T16:46:26.647Z,101865.09
2023-04-09T16:48:55.076Z,101862.88
2023-04-09T16:51:24.827Z,101862.78
2023-04-09T16:53:53.016Z,101857.50
2023-04-09T16:56:21.247Z,101862.06
2023-04-09T16:58:49.465Z,101867.63
2023-04-09T17:01:17.801Z,101860.63
2023-04-09T17:03:46.201Z,101859.38
2023-04-09T17:06:14.488Z,101863.88
2023-04-09T17:08:44.068Z,101861.56
2023-04-09T17:11:16.196Z,101874.41
2023-04-09T17:13:45.000Z,101867.00
2023-04-09T17:16:14.364Z,101859.00
2023-04-09T17:18:42.649Z,101858.06
2023-04-09T17:21:10.936Z,101861.13
2023-04-09T17:23:39.182Z,101872.06
2023-04-09T17:26:08.884Z,101869.44
2023-04-09T17:28:37.183Z,101869.81
2023-04-09T17:31:13.118Z,101864.03
2023-04-09T17:33:41.732Z,101863.03
2023-04-09T17:36:10.105Z,101855.81
2023-04-09T17:38:38.335Z,101861.09
2023-04-09T17:41:08.513Z,101867.28
2023-04-09T17:43:37.161Z,101872.97
2023-04-09T17:46:07.443Z,101860.38
2023-04-09T17:48:35.833Z,101860.00
2023-04-09T17:51:04.108Z,101874.53
2023-04-09T17:53:32.355Z,101869.56
2023-04-09T17:56:03.035Z,101875.50
2023-04-09T17:58:32.779Z,101872.47
2023-04-09T18:01:01.327Z,101874.63
2023-04-09T18:03:29.846Z,101878.88
2023-04-09T18:05:58.231Z,101881.69
2023-04-09T18:08:26.685Z,101869.09
2023-04-09T18:11:10.968Z,101874.44
2023-04-09T18:13:42.168Z,101881.19
2023-04-09T18:16:12.115Z,101880.56
2023-04-09T18:18:41.297Z,101875.38
2023-04-09T18:21:09.804Z,101873.56
2023-04-09T18:23:39.524Z,101879.38
2023-04-09T18:26:07.864Z,101892.34
2023-04-09T18:28:36.139Z,101885.06
2023-04-09T18:31:06.398Z,101889.06
2023-04-09T18:33:34.675Z,101880.56
2023-04-09T18:36:03.353Z,101881.69
2023-04-09T18:38:31.677Z,101878.44
2023-04-09T18:41:01.231Z,101872.59
2023-04-09T18:43:29.509Z,101888.47
2023-04-09T18:45:58.211Z,101883.38
2023-04-09T18:48:27.862Z,101876.50
2023-04-09T18:50:56.059Z,101887.72
2023-04-09T18:53:25.096Z,101883.38
2023-04-09T18:55:53.311Z,101882.53
2023-04-09T18:58:21.519Z,101883.22
2023-04-09T19:00:51.506Z,101884.81
2023-04-09T19:03:20.260Z,101888.34
2023-04-09T19:05:49.951Z,101884.69
2023-04-09T19:08:18.207Z,101889.78
2023-04-09T19:10:47.556Z,101894.84
2023-04-09T19:13:16.880Z,101888.69
2023-04-09T19:15:45.611Z,101892.66
2023-04-09T19:18:13.875Z,101879.22
2023-04-09T19:20:42.107Z,101893.28
2023-04-09T19:23:11.686Z,101887.00
2023-04-09T19:25:39.891Z,101900.53
2023-04-09T19:28:08.112Z,101898.25
2023-04-09T19:30:36.368Z,101900.06
2023-04-09T19:33:04.837Z,101896.56
2023-04-09T19:35:35.758Z,101897.41
2023-04-09T19:38:05.085Z,101903.69
2023-04-09T19:40:34.988Z,101896.66
2023-04-09T19:43:03.322Z,101896.91
2023-04-09T19:45:31.541Z,101886.00
2023-04-09T19:47:59.850Z,101893.25
2023-04-09T19:50:28.393Z,101893.88
2023-04-09T19:52:57.386Z,101891.81
2023-04-09T19:55:25.969Z,101893.66
2023-04-09T19:57:55.534Z,101892.56
2023-04-09T20:00:23.722Z,101895.44
2023-04-09T20:02:52.439Z,101895.31
2023-04-09T20:05:21.360Z,101886.25
2023-04-09T20:07:49.644Z,101895.69
2023-04-09T20:10:18.217Z,101892.16
2023-04-09T20:12:48.603Z,101900.03
2023-04-09T20:15:20.024Z,101899.03
2023-04-09T20:17:49.152Z,101884.19
2023-04-09T20:20:19.959Z,101893.72
2023-04-09T20:22:56.306Z,101885.75
2023-04-09T20:25:25.826Z,101884.75
2023-04-09T20:27:55.057Z,101885.28
2023-04-09T20:30:24.644Z,101885.50
2023-04-09T20:32:52.957Z,101884.75
2023-04-09T20:35:21.868Z,101883.63
2023-04-09T20:37:50.364Z,101874.69
2023-04-09T20:40:18.625Z,101866.72
2023-04-09T20:42:46.836Z,101874.16
2023-04-09T20:45:15.081Z,101868.63
2023-04-09T20:47:44.687Z,101865.00
2023-04-09T20:50:13.214Z,101864.63
2023-04-09T20:52:41.803Z,101855.91
2023-04-09T20:55:10.642Z,101859.44
2023-04-09T20:57:38.818Z,101860.53
2023-04-09T21:00:09.295Z,101858.38
2023-04-09T21:02:38.171Z,101853.50
2023-04-09T21:07:43.533Z,101852.75
2023-04-09T21:10:12.049Z,101852.50
2023-04-09T21:12:40.315Z,101852.97
2023-04-09T21:15:10.195Z,101854.19
2023-04-09T21:17:38.420Z,101851.13
2023-04-09T21:20:09.702Z,101856.69
2023-04-09T21:22:37.999Z,101860.44
2023-04-09T21:25:07.647Z,101855.28
2023-04-09T21:27:36.033Z,101859.00
2023-04-09T21:30:04.684Z,101854.50
2023-04-09T21:32:32.932Z,101852.81
2023-04-09T21:35:01.406Z,101858.38
2023-04-09T21:37:32.983Z,101857.53
2023-04-09T21:40:01.463Z,101851.59
2023-04-09T21:42:31.489Z,101846.94
2023-04-09T21:45:01.449Z,101848.09
2023-04-09T21:47:29.696Z,101835.53
2023-04-09T21:49:58.630Z,101841.19
2023-04-09T21:52:26.919Z,101827.13
2023-04-09T21:54:56.511Z,101825.94
2023-04-09T21:57:24.711Z,101823.75
2023-04-09T21:59:53.039Z,101825.41
2023-04-09T22:02:21.368Z,101837.50
2023-04-09T22:04:49.719Z,101844.16
2023-04-09T22:07:17.998Z,101843.91
2023-04-09T22:09:46.618Z,101840.66
2023-04-09T22:12:16.532Z,101853.09
2023-04-09T22:14:45.984Z,101857.19
2023-04-09T22:17:14.259Z,101859.13
2023-04-09T22:19:42.550Z,101862.72
2023-04-09T22:22:13.473Z,101861.69
2023-04-09T22:24:41.862Z,101862.44
2023-04-09T22:27:10.046Z,101861.13
2023-04-09T22:29:39.604Z,101870.31
2023-04-09T22:32:07.808Z,101864.75
2023-04-09T22:34:36.030Z,101870.34
2023-04-09T22:37:04.229Z,101866.66
2023-04-09T22:39:32.454Z,101878.13
2023-04-09T22:42:01.816Z,101879.81
2023-04-09T22:44:30.205Z,101873.25
2023-04-09T22:46:59.948Z,101879.91
2023-04-09T22:49:28.344Z,101880.38
2023-04-09T22:51:56.538Z,101873.44
2023-04-09T22:54:24.923Z,101877.22
2023-04-09T22:56:53.116Z,101872.88
2023-04-09T22:59:25.091Z,101871.19
2023-04-09T23:01:55.864Z,101882.13
2023-04-09T23:04:25.566Z,101880.38
2023-04-09T23:06:54.590Z,101875.44
2023-04-09T23:09:22.831Z,101879.59
2023-04-09T23:11:51.230Z,101878.75
2023-04-09T23:14:19.550Z,101874.91
2023-04-09T23:16:47.789Z,101875.59
2023-04-09T23:19:16.056Z,101869.22
2023-04-09T23:21:45.710Z,101870.34
2023-04-09T23:24:13.908Z,101872.66
2023-04-09T23:26:42.142Z,101869.88
2023-04-09T23:29:10.443Z,101875.44
2023-04-09T23:31:38.698Z,101859.41
2023-04-09T23:34:06.919Z,101866.91
2023-04-09T23:36:35.163Z,101869.34
2023-04-09T23:39:04.965Z,101868.44
2023-04-09T23:41:33.209Z,101859.06
2023-04-09T23:44:01.465Z,101865.06
2023-04-09T23:46:30.625Z,101858.44
2023-04-09T23:48:58.830Z,101855.22
2023-04-09T23:51:27.133Z,101849.97
2023-04-09T23:53:55.575Z,101845.81
2023-04-09T23:56:25.356Z,101849.25
2023-04-09T23:58:53.543Z,101844.72
